createdAt,value
2022-10-02T00:01:47.185Z,24.08
2022-10-02T00:04:18.698Z,20.35
2022-10-02T00:06:48.098Z,20.88
2022-10-02T00:09:42.142Z,21.73
2022-10-02T00:12:14.265Z,20.98
2022-10-02T00:14:44.440Z,25.83
2022-10-02T00:17:22.889Z,22.23
2022-10-02T00:19:54.924Z,27.08
2022-10-02T00:22:27.581Z,29.20
2022-10-02T00:24:54.034Z,28.08
2022-10-02T00:27:43.928Z,37.55
2022-10-02T00:30:15.278Z,28.38
2022-10-02T00:32:53.917Z,25.05
2022-10-02T00:35:26.683Z,27.38
2022-10-02T00:38:14.960Z,26.55
2022-10-02T00:41:00.356Z,35.10
2022-10-02T00:43:43.182Z,29.95
2022-10-02T00:46:18.234Z,27.92
2022-10-02T00:49:16.291Z,25.33
2022-10-02T00:52:05.417Z,26.63
2022-10-02T00:54:50.319Z,31.83
2022-10-02T00:57:50.887Z,28.98
2022-10-02T01:00:19.221Z,24.73
2022-10-02T01:03:24.781Z,29.15
2022-10-02T01:05:51.336Z,26.77
2022-10-02T01:08:18.098Z,39.58
2022-10-02T01:10:45.441Z,29.77
2022-10-02T01:13:12.551Z,36.05
2022-10-02T01:15:46.492Z,29.75
2022-10-02T01:18:14.945Z,36.20
2022-10-02T01:20:54.439Z,31.40
2022-10-02T01:23:39.124Z,41.22
2022-10-02T01:26:06.785Z,30.10
2022-10-02T01:28:33.633Z,33.08
2022-10-02T01:31:15.281Z,31.77
2022-10-02T01:33:43.730Z,23.10
2022-10-02T01:36:12.644Z,32.13
2022-10-02T01:38:40.962Z,37.42
2022-10-02T01:41:11.129Z,32.67
2022-10-02T01:43:58.815Z,29.15
2022-10-02T01:46:56.524Z,41.17
2022-10-02T01:49:50.522Z,28.58
2022-10-02T01:52:54.475Z,27.05
2022-10-02T01:55:30.095Z,30.85
2022-10-02T01:58:23.108Z,32.80
2022-10-02T02:00:58.862Z,30.50
2022-10-02T02:03:36.415Z,42.47
2022-10-02T02:06:09.493Z,32.10
2022-10-02T02:08:56.490Z,38.45
2022-10-02T02:11:26.533Z,32.15
2022-10-02T02:14:17.388Z,33.03
2022-10-02T02:16:49.705Z,36.95
2022-10-02T02:19:44.878Z,31.08
2022-10-02T02:22:18.799Z,36.35
2022-10-02T02:24:52.688Z,36.80
2022-10-02T02:27:24.458Z,30.35
2022-10-02T02:29:56.745Z,37.58
2022-10-02T02:32:29.197Z,35.97
2022-10-02T02:35:05.878Z,33.33
2022-10-02T02:37:36.111Z,35.42
2022-10-02T02:40:11.342Z,32.28
2022-10-02T02:42:43.551Z,35.88
2022-10-02T02:45:16.618Z,31.75
2022-10-02T02:47:51.594Z,30.63
2022-10-02T02:50:22.986Z,30.23
2022-10-02T02:53:01.969Z,32.00
2022-10-02T02:55:33.110Z,35.17
2022-10-02T02:58:17.841Z,39.13
2022-10-02T03:00:44.564Z,41.85
2022-10-02T03:03:11.172Z,32.58
2022-10-02T03:05:44.378Z,31.20
2022-10-02T03:08:20.199Z,35.60
2022-10-02T03:11:17.469Z,36.80
2022-10-02T03:14:15.247Z,40.25
2022-10-02T03:16:47.784Z,35.55
2022-10-02T03:19:20.485Z,37.97
2022-10-02T03:22:05.609Z,39.28
2022-10-02T03:24:44.020Z,39.17
2022-10-02T03:27:34.985Z,33.97
2022-10-02T03:30:13.160Z,33.50
2022-10-02T03:32:43.605Z,36.53
2022-10-02T03:35:13.195Z,37.25
2022-10-02T03:37:47.630Z,33.40
2022-10-02T03:40:14.183Z,40.47
2022-10-02T03:42:40.743Z,48.92
2022-10-02T03:45:07.869Z,40.72
2022-10-02T03:47:34.471Z,32.60
2022-10-02T03:50:01.038Z,43.58
2022-10-02T03:52:31.955Z,43.65
2022-10-02T03:55:03.976Z,42.17
2022-10-02T03:57:33.844Z,33.55
2022-10-02T04:00:13.058Z,36.35
2022-10-02T04:03:17.929Z,31.88
2022-10-02T04:06:20.922Z,30.20
2022-10-02T04:08:55.769Z,26.05
2022-10-02T04:11:28.310Z,21.00
2022-10-02T04:14:12.610Z,22.60
2022-10-02T04:17:02.392Z,22.20
2022-10-02T04:19:39.798Z,25.42
2022-10-02T04:22:10.438Z,20.45
2022-10-02T04:24:44.947Z,30.48
2022-10-02T04:27:18.420Z,28.05
2022-10-02T04:29:55.054Z,33.00
2022-10-02T04:32:27.281Z,32.72
2022-10-02T04:34:54.594Z,35.72
2022-10-02T04:38:02.073Z,33.55
2022-10-02T04:41:06.276Z,39.95
2022-10-02T04:43:51.172Z,45.50
2022-10-02T04:46:41.265Z,48.67
2022-10-02T04:49:26.150Z,51.53
2022-10-02T04:51:52.625Z,41.40
2022-10-02T04:54:56.745Z,50.85
2022-10-02T04:58:13.943Z,51.08
2022-10-02T05:01:17.158Z,49.22
2022-10-02T05:04:06.188Z,54.45
2022-10-02T05:07:01.518Z,57.60
2022-10-02T05:09:33.903Z,46.33
2022-10-02T05:12:34.515Z,48.20
2022-10-02T05:15:13.287Z,54.67
2022-10-02T05:18:15.802Z,53.33
2022-10-02T05:20:50.397Z,56.83
2022-10-02T05:23:22.810Z,53.88
2022-10-02T05:25:59.034Z,53.55
2022-10-02T05:28:40.702Z,52.40
2022-10-02T05:31:37.363Z,55.35
2022-10-02T05:34:22.609Z,51.33
2022-10-02T05:36:52.446Z,45.78
2022-10-02T05:39:27.092Z,49.28
2022-10-02T05:42:12.034Z,55.97
2022-10-02T05:44:43.128Z,53.05
2022-10-02T05:47:09.676Z,66.47
2022-10-02T05:49:41.753Z,59.67
2022-10-02T05:52:23.634Z,60.10
2022-10-02T05:54:50.166Z,60.97
2022-10-02T05:57:46.155Z,61.70
2022-10-02T06:00:32.736Z,67.35
2022-10-02T06:03:14.397Z,54.90
2022-10-02T06:05:40.872Z,64.25
2022-10-02T06:08:12.564Z,57.60
2022-10-02T06:10:45.467Z,55.45
2022-10-02T06:13:24.143Z,57.47
2022-10-02T06:15:51.082Z,57.07
2022-10-02T06:18:25.253Z,55.47
2022-10-02T06:20:53.908Z,58.03
2022-10-02T06:23:26.293Z,53.33
2022-10-02T06:26:01.273Z,56.88
2022-10-02T06:28:51.610Z,57.80
2022-10-02T06:31:37.342Z,58.90
2022-10-02T06:34:04.039Z,71.20
2022-10-02T06:37:01.121Z,65.70
2022-10-02T06:40:06.261Z,56.03
2022-10-02T06:42:42.077Z,68.30
2022-10-02T06:45:27.284Z,60.75
2022-10-02T06:48:24.636Z,63.00
2022-10-02T06:51:14.928Z,64.00
2022-10-02T06:54:01.308Z,55.90
2022-10-02T06:57:09.048Z,57.13
2022-10-02T06:59:50.200Z,54.13
2022-10-02T07:02:41.141Z,49.65
2022-10-02T07:05:26.503Z,55.75
2022-10-02T07:08:20.654Z,54.60
2022-10-02T07:11:15.511Z,59.58
2022-10-02T07:14:21.217Z,51.30
2022-10-02T07:17:22.171Z,57.60
2022-10-02T07:20:07.894Z,52.80
2022-10-02T07:22:45.045Z,60.55
2022-10-02T07:25:18.460Z,53.05
2022-10-02T07:27:44.969Z,48.50
2022-10-02T07:30:13.944Z,53.58
2022-10-02T07:33:15.817Z,43.42
2022-10-02T07:36:27.501Z,43.10
2022-10-02T07:39:16.214Z,47.45
2022-10-02T07:42:07.207Z,47.53
2022-10-02T07:45:04.865Z,45.28
2022-10-02T07:47:43.479Z,42.47
2022-10-02T07:50:17.244Z,41.42
2022-10-02T07:52:59.041Z,39.80
2022-10-02T07:55:26.072Z,42.03
2022-10-02T07:58:10.011Z,37.67
2022-10-02T08:00:48.524Z,40.15
2022-10-02T08:03:39.967Z,43.58
2022-10-02T08:06:07.641Z,42.85
2022-10-02T08:08:53.031Z,42.03
2022-10-02T08:11:47.257Z,37.88
2022-10-02T08:14:31.108Z,44.42
2022-10-02T08:17:02.833Z,38.63
2022-10-02T08:19:29.949Z,41.72
2022-10-02T08:22:01.723Z,44.08
2022-10-02T08:24:37.019Z,36.03
2022-10-02T08:27:12.928Z,38.33
2022-10-02T08:29:42.203Z,41.30
2022-10-02T08:32:14.218Z,35.97
2022-10-02T08:34:42.234Z,38.40
2022-10-02T08:37:20.960Z,37.90
2022-10-02T08:40:09.064Z,33.80
2022-10-02T08:43:14.046Z,31.20
2022-10-02T08:46:18.437Z,35.53
2022-10-02T08:49:22.086Z,28.70
2022-10-02T08:52:23.178Z,35.63
2022-10-02T08:55:09.558Z,31.70
2022-10-02T08:57:59.533Z,31.52
2022-10-02T09:01:04.858Z,34.92
2022-10-02T09:04:10.558Z,36.08
2022-10-02T09:07:03.400Z,32.97
2022-10-02T09:09:45.886Z,30.70
2022-10-02T09:12:53.554Z,30.90
2022-10-02T09:15:40.266Z,32.72
2022-10-02T09:18:56.405Z,31.83
2022-10-02T09:22:21.600Z,27.98
2022-10-02T09:25:06.545Z,28.40
2022-10-02T09:27:49.897Z,20.33
2022-10-02T09:30:24.510Z,31.45
2022-10-02T09:33:13.894Z,27.92
2022-10-02T09:35:48.481Z,26.63
2022-10-02T09:38:38.301Z,22.85
2022-10-02T09:41:44.230Z,25.55
2022-10-02T09:44:28.224Z,31.15
2022-10-02T09:46:57.466Z,28.10
2022-10-02T09:49:45.183Z,33.05
2022-10-02T09:52:27.949Z,23.00
2022-10-02T09:55:29.321Z,21.15
2022-10-02T09:58:09.017Z,24.45
2022-10-02T10:00:54.117Z,25.42
2022-10-02T10:03:42.302Z,23.95
2022-10-02T10:06:48.488Z,22.90
2022-10-02T10:09:56.641Z,23.23
2022-10-02T10:12:32.373Z,19.20
2022-10-02T10:15:19.868Z,17.85
2022-10-02T10:18:08.147Z,18.20
2022-10-02T10:21:11.855Z,23.35
2022-10-02T10:23:51.232Z,19.27
2022-10-02T10:26:55.760Z,21.45
2022-10-02T10:29:45.291Z,17.80
2022-10-02T10:32:26.122Z,16.45
2022-10-02T10:34:55.712Z,13.15
2022-10-02T10:40:44.586Z,12.98
2022-10-02T10:43:32.181Z,14.02
2022-10-02T10:46:33.126Z,11.50
2022-10-02T10:49:23.131Z,13.20
2022-10-02T10:52:07.552Z,13.10
2022-10-02T10:55:10.880Z,17.73
2022-10-02T10:58:21.406Z,11.77
2022-10-02T11:01:15.471Z,16.48
2022-10-02T11:04:32.021Z,13.65
2022-10-02T11:07:23.393Z,15.10
2022-10-02T11:09:53.121Z,8.40
2022-10-02T11:12:26.369Z,13.63
2022-10-02T11:15:08.424Z,15.50
2022-10-02T11:18:01.002Z,16.35
2022-10-02T11:20:31.801Z,13.10
2022-10-02T11:23:13.954Z,13.43
2022-10-02T11:25:59.462Z,11.98
2022-10-02T11:28:47.319Z,11.98
2022-10-02T11:31:23.128Z,18.77
2022-10-02T11:34:11.360Z,14.32
2022-10-02T11:36:52.699Z,15.15
2022-10-02T11:39:19.830Z,14.70
2022-10-02T11:42:11.660Z,11.30
2022-10-02T11:44:47.497Z,13.55
2022-10-02T11:47:38.486Z,18.98
2022-10-02T11:50:23.379Z,10.18
2022-10-02T11:53:24.164Z,12.60
2022-10-02T11:56:15.543Z,12.27
2022-10-02T11:59:10.046Z,11.07
2022-10-02T12:02:06.128Z,9.48
2022-10-02T12:05:10.569Z,14.02
2022-10-02T12:07:49.334Z,9.80
2022-10-02T12:10:42.133Z,12.75
2022-10-02T12:13:21.767Z,9.45
2022-10-02T12:16:22.391Z,7.97
2022-10-02T12:19:19.524Z,9.48
2022-10-02T12:22:47.546Z,12.25
2022-10-02T12:25:54.390Z,11.48
2022-10-02T12:28:30.268Z,8.05
2022-10-02T12:31:06.796Z,8.95
2022-10-02T12:34:05.837Z,7.65
2022-10-02T12:36:45.783Z,12.43
2022-10-02T12:39:43.616Z,7.75
2022-10-02T12:42:43.795Z,7.35
2022-10-02T12:45:22.583Z,6.43
2022-10-02T12:47:49.069Z,6.80
2022-10-02T12:50:41.421Z,7.93
2022-10-02T12:53:17.288Z,8.90
2022-10-02T12:56:21.615Z,9.52
2022-10-02T12:59:30.188Z,8.70
2022-10-02T13:02:05.578Z,11.70
2022-10-02T13:04:58.057Z,12.82
2022-10-02T13:07:46.758Z,10.65
2022-10-02T13:10:57.345Z,9.88
2022-10-02T13:13:58.153Z,10.98
2022-10-02T13:16:48.983Z,10.25
2022-10-02T13:19:44.831Z,12.88
2022-10-02T13:22:19.410Z,7.80
2022-10-02T13:25:17.285Z,6.03
2022-10-02T13:27:59.721Z,13.88
2022-10-02T13:30:33.597Z,8.50
2022-10-02T13:33:00.233Z,8.48
2022-10-02T13:35:45.965Z,9.35
2022-10-02T13:38:30.994Z,14.45
2022-10-02T13:41:16.790Z,8.65
2022-10-02T13:43:58.631Z,9.57
2022-10-02T13:47:11.418Z,9.35
2022-10-02T13:50:06.055Z,10.38
2022-10-02T13:52:33.155Z,8.27
2022-10-02T13:55:22.616Z,11.63
2022-10-02T14:00:37.407Z,8.25
2022-10-02T14:03:14.181Z,7.00
2022-10-02T14:05:55.763Z,8.80
2022-10-02T14:08:37.086Z,8.57
2022-10-02T14:11:18.308Z,9.93
2022-10-02T14:13:59.086Z,5.72
2022-10-02T14:16:32.469Z,11.10
2022-10-02T14:19:24.857Z,9.35
2022-10-02T14:22:00.808Z,7.35
2022-10-02T14:25:01.283Z,9.23
2022-10-02T14:28:02.384Z,9.57
2022-10-02T14:30:55.259Z,10.70
2022-10-02T14:33:30.121Z,7.90
2022-10-02T14:36:15.540Z,8.85
2022-10-02T14:39:04.073Z,6.25
2022-10-02T14:42:10.204Z,9.18
2022-10-02T14:45:21.556Z,10.77
2022-10-02T14:48:04.496Z,8.55
2022-10-02T14:50:45.265Z,7.30
2022-10-02T14:53:33.247Z,10.30
2022-10-02T14:56:09.044Z,8.48
2022-10-02T14:59:09.844Z,6.80
2022-10-02T15:01:51.442Z,7.60
2022-10-02T15:04:19.106Z,10.10
2022-10-02T15:07:04.443Z,7.47
2022-10-02T15:09:55.148Z,8.43
2022-10-02T15:12:27.580Z,9.10
2022-10-02T15:15:04.612Z,6.90
2022-10-02T15:17:55.997Z,7.07
2022-10-02T15:20:52.334Z,5.20
2022-10-02T15:23:43.490Z,7.40
2022-10-02T15:26:35.452Z,10.65
2022-10-02T15:29:01.999Z,8.95
2022-10-02T15:31:31.699Z,6.55
2022-10-02T15:34:04.332Z,7.72
2022-10-02T15:36:55.599Z,8.38
2022-10-02T15:39:41.859Z,7.00
2022-10-02T15:42:10.002Z,9.90
2022-10-02T15:45:06.656Z,6.65
2022-10-02T15:47:55.981Z,8.13
2022-10-02T15:50:50.065Z,10.52
2022-10-02T15:53:34.934Z,9.55
2022-10-02T15:56:30.959Z,9.75
2022-10-02T15:58:57.449Z,11.27
2022-10-02T16:01:30.005Z,9.98
2022-10-02T16:04:08.258Z,10.32
2022-10-02T16:07:12.575Z,12.32
2022-10-02T16:09:47.025Z,7.90
2022-10-02T16:12:35.432Z,11.52
2022-10-02T16:15:28.739Z,6.20
2022-10-02T16:18:15.371Z,9.93
2022-10-02T16:21:06.326Z,12.60
2022-10-02T16:23:44.892Z,9.65
2022-10-02T16:26:37.252Z,11.50
2022-10-02T16:29:10.293Z,11.15
2022-10-02T16:31:55.269Z,11.68
2022-10-02T16:34:21.778Z,7.90
2022-10-02T16:36:51.464Z,7.75
2022-10-02T16:39:20.941Z,9.57
2022-10-02T16:41:58.665Z,10.13
2022-10-02T16:44:44.178Z,15.55
2022-10-02T16:47:34.718Z,9.23
2022-10-02T16:50:19.259Z,9.15
2022-10-02T16:52:53.321Z,16.00
2022-10-02T16:55:37.341Z,10.40
2022-10-02T16:58:27.739Z,9.18
2022-10-02T17:01:02.151Z,12.68
2022-10-02T17:03:41.762Z,9.02
2022-10-02T17:08:43.112Z,14.63
2022-10-02T17:11:36.174Z,12.23
2022-10-02T17:14:19.418Z,7.68
2022-10-02T17:16:55.865Z,11.30
2022-10-02T17:19:34.295Z,11.60
2022-10-02T17:22:10.467Z,10.23
2022-10-02T17:25:03.420Z,10.70
2022-10-02T17:27:32.927Z,14.63
2022-10-02T17:32:51.817Z,11.95
2022-10-02T17:35:24.463Z,13.70
2022-10-02T17:37:57.109Z,14.20
2022-10-02T17:40:39.281Z,17.55
2022-10-02T17:43:31.279Z,19.52
2022-10-02T17:46:02.818Z,31.50
2022-10-02T17:48:38.252Z,75.43
2022-10-02T17:51:51.428Z,46.72
2022-10-02T17:54:46.883Z,21.88
2022-10-02T17:57:27.122Z,31.23
2022-10-02T18:00:19.577Z,19.73
2022-10-02T18:03:28.595Z,13.85
2022-10-02T18:06:16.744Z,41.70
2022-10-02T18:09:02.032Z,22.13
2022-10-02T18:11:43.982Z,18.75
2022-10-02T18:14:26.069Z,13.40
2022-10-02T18:17:14.203Z,13.30
2022-10-02T18:20:05.336Z,18.55
2022-10-02T18:22:31.837Z,15.45
2022-10-02T18:25:12.436Z,12.70
2022-10-02T18:28:03.678Z,11.10
2022-10-02T18:30:57.779Z,9.82
2022-10-02T18:33:42.271Z,15.07
2022-10-02T18:36:30.991Z,12.57
2022-10-02T18:39:19.066Z,17.67
2022-10-02T18:42:23.586Z,13.05
2022-10-02T18:45:38.022Z,14.95
2022-10-02T18:48:35.448Z,12.38
2022-10-02T18:51:27.039Z,12.23
2022-10-02T18:53:59.779Z,15.40
2022-10-02T18:56:52.879Z,15.30
2022-10-02T18:59:53.305Z,13.93
2022-10-02T19:02:29.916Z,11.70
2022-10-02T19:05:02.772Z,15.23
2022-10-02T19:07:45.770Z,10.48
2022-10-02T19:10:32.216Z,14.70
2022-10-02T19:13:28.825Z,17.75
2022-10-02T19:15:58.594Z,12.73
2022-10-02T19:18:30.704Z,10.88
2022-10-02T19:21:11.111Z,14.00
2022-10-02T19:23:46.484Z,14.15
2022-10-02T19:26:21.723Z,10.35
2022-10-02T19:29:02.577Z,10.93
2022-10-02T19:31:31.180Z,11.02
2022-10-02T19:34:05.375Z,13.37
2022-10-02T19:36:38.069Z,12.85
2022-10-02T19:39:13.422Z,9.40
2022-10-02T19:41:42.910Z,10.10
2022-10-02T19:44:31.178Z,16.83
2022-10-02T19:47:01.832Z,9.98
2022-10-02T19:49:32.313Z,11.25
2022-10-02T19:51:59.027Z,11.05
2022-10-02T19:54:38.295Z,18.63
2022-10-02T19:57:16.483Z,14.23
2022-10-02T19:59:48.392Z,15.05
2022-10-02T20:02:23.903Z,14.43
2022-10-02T20:04:54.889Z,12.27
2022-10-02T20:07:25.548Z,12.00
2022-10-02T20:09:59.947Z,12.63
2022-10-02T20:12:41.305Z,10.75
2022-10-02T20:15:13.877Z,14.93
2022-10-02T20:17:41.119Z,10.70
2022-10-02T20:20:13.727Z,15.52
2022-10-02T20:22:51.647Z,13.68
2022-10-02T20:25:28.829Z,14.45
2022-10-02T20:28:11.093Z,13.25
2022-10-02T20:31:13.411Z,12.40
2022-10-02T20:33:58.060Z,9.43
2022-10-02T20:36:41.138Z,12.73
2022-10-02T20:39:13.998Z,11.07
2022-10-02T20:41:55.781Z,10.93
2022-10-02T20:44:22.449Z,10.15
2022-10-02T20:47:10.975Z,17.42
2022-10-02T20:50:04.711Z,10.35
2022-10-02T20:53:02.126Z,15.88
2022-10-02T20:55:56.263Z,10.35
2022-10-02T20:58:47.509Z,14.45
2022-10-02T21:01:21.072Z,21.38
2022-10-02T21:07:08.960Z,6.43
2022-10-02T21:09:57.658Z,15.65
2022-10-02T21:12:36.344Z,19.30
2022-10-02T21:15:18.205Z,13.00
2022-10-02T21:17:54.744Z,12.98
2022-10-02T21:21:00.130Z,16.00
2022-10-02T21:23:48.988Z,11.93
2022-10-02T21:26:37.131Z,16.77
2022-10-02T21:29:39.003Z,18.30
2022-10-02T21:32:30.803Z,17.75
2022-10-02T21:35:35.563Z,18.38
2022-10-02T21:38:40.030Z,18.77
2022-10-02T21:41:37.627Z,15.02
2022-10-02T21:44:34.922Z,14.93
2022-10-02T21:47:05.041Z,17.00
2022-10-02T21:49:52.399Z,14.85
2022-10-02T21:52:28.036Z,16.98
2022-10-02T21:55:25.161Z,18.00
2022-10-02T21:58:19.157Z,16.00
2022-10-02T22:01:14.862Z,14.80
2022-10-02T22:04:00.161Z,15.60
2022-10-02T22:06:37.362Z,15.18
2022-10-02T22:09:26.939Z,11.02
2022-10-02T22:15:02.379Z,11.00
2022-10-02T22:17:52.230Z,11.80
2022-10-02T22:20:27.695Z,14.27
2022-10-02T22:23:39.024Z,15.38
2022-10-02T22:26:14.485Z,10.15
2022-10-02T22:28:50.898Z,12.90
2022-10-02T22:31:36.757Z,15.43
2022-10-02T22:34:27.912Z,13.32
2022-10-02T22:37:03.715Z,10.68
2022-10-02T22:39:43.590Z,11.48
2022-10-02T22:42:22.128Z,13.98
2022-10-02T22:44:57.853Z,9.13
2022-10-02T22:47:37.139Z,14.98
2022-10-02T22:50:12.153Z,14.95
2022-10-02T22:52:52.727Z,11.40
2022-10-02T22:55:30.148Z,13.15
2022-10-02T22:58:09.702Z,13.95
2022-10-02T23:00:53.574Z,8.88
2022-10-02T23:03:41.595Z,11.80
2022-10-02T23:06:33.870Z,11.43
2022-10-02T23:09:16.071Z,14.25
2022-10-02T23:11:59.899Z,14.68
2022-10-02T23:14:59.732Z,12.98
2022-10-02T23:17:57.125Z,11.93
2022-10-02T23:20:38.082Z,19.30
2022-10-02T23:23:15.985Z,17.10
2022-10-02T23:25:49.768Z,15.85
2022-10-02T23:28:25.411Z,16.88
2022-10-02T23:31:12.913Z,16.52
2022-10-02T23:33:51.809Z,16.10
2022-10-02T23:36:32.789Z,15.85
2022-10-02T23:39:12.874Z,19.25
2022-10-02T23:41:48.005Z,14.98
2022-10-02T23:44:44.550Z,20.90
2022-10-02T23:47:31.131Z,20.63
2022-10-02T23:49:59.651Z,20.95
2022-10-02T23:52:48.391Z,14.70
2022-10-02T23:55:44.126Z,17.83
2022-10-02T23:58:23.169Z,20.45
